Time;durP1;ratioP1;P1;durP2;ratioP2;P2;SDS_P1;SDS_P2;PMS_P1;PMS_P2;Temp;Humidity;BMP_temperature;BMP_pressure;BME280_temperature;BME280_humidity;BME280_pressure;Samples;Min_cycle;Max_cycle;Signal;HPM_P1;HPM_P2
2021/05/22 00:02:27;;;;;;;1.27;0.90;;;7.20;99.90;;;7.55;100.00;94539.00;2405311;57;26182;-66
2021/05/22 00:05:15;;;;;;;2.20;0.70;;;7.20;99.90;;;7.51;100.00;94538.00;2191608;57;26282;-66
2021/05/22 00:08:01;;;;;;;1.30;0.80;;;7.10;99.90;;;7.33;100.00;94539.00;2191574;57;27051;-65
2021/05/22 00:10:48;;;;;;;1.40;0.90;;;7.20;99.90;;;7.50;100.00;94550.00;2405227;57;26158;-66
2021/05/22 00:13:34;;;;;;;0.73;0.67;;;7.10;99.90;;;7.46;100.00;94548.00;2191965;57;26256;-65
2021/05/22 00:16:20;;;;;;;1.10;0.60;;;7.10;99.90;;;7.34;100.00;94541.00;2405289;57;26231;-66
2021/05/22 00:19:07;;;;;;;1.00;0.73;;;7.00;99.90;;;7.40;100.00;94552.00;2190926;57;26197;-66
2021/05/22 00:21:53;;;;;;;1.03;0.80;;;7.00;99.90;;;7.32;100.00;94556.00;2405269;57;26590;-66
2021/05/22 00:24:39;;;;;;;0.70;0.67;;;7.10;99.90;;;7.42;100.00;94573.00;2191526;57;26701;-66
2021/05/22 00:27:26;;;;;;;0.60;0.60;;;7.00;99.90;;;7.37;100.00;94587.00;2405245;57;26181;-65
2021/05/22 00:30:15;;;;;;;1.90;1.13;;;7.10;99.90;;;7.46;100.00;94598.00;2191644;57;26652;-66
2021/05/22 00:33:02;;;;;;;1.40;1.00;;;7.10;99.90;;;7.40;100.00;94596.00;2405093;57;26617;-66
2021/05/22 00:35:50;;;;;;;1.37;0.97;;;7.20;99.90;;;7.50;100.00;94594.00;2191098;57;26153;-65
2021/05/22 00:38:36;;;;;;;1.00;0.90;;;7.10;99.90;;;7.40;100.00;94586.00;2191663;57;26222;-66
2021/05/22 00:41:22;;;;;;;1.37;0.83;;;7.10;99.90;;;7.39;100.00;94597.00;2405107;57;26161;-66
2021/05/22 00:44:09;;;;;;;0.90;0.80;;;7.20;99.90;;;7.60;100.00;94592.00;2190871;57;26131;-65
2021/05/22 00:46:55;;;;;;;1.27;0.60;;;7.00;99.90;;;7.27;100.00;94589.00;2405324;57;26169;-65
2021/05/22 00:49:41;;;;;;;0.50;0.50;;;6.80;99.90;;;7.02;100.00;94587.00;2191208;57;26209;-65
2021/05/22 00:52:28;;;;;;;0.30;0.30;;;6.60;99.90;;;6.83;100.00;94583.00;2405348;57;26603;-65
2021/05/22 00:55:15;;;;;;;0.50;0.47;;;6.50;99.90;;;6.75;100.00;94576.00;2191776;57;26667;-65
2021/05/22 00:58:03;;;;;;;0.40;0.40;;;6.50;99.90;;;6.73;100.00;94577.00;2405442;57;26133;-66
2021/05/22 01:00:52;;;;;;;1.70;0.60;;;6.40;99.90;;;6.62;100.00;94573.00;2191201;57;26109;-65
2021/05/22 01:03:44;;;;;;;1.00;0.53;;;6.40;99.90;;;6.60;100.00;94582.00;2405050;57;26656;-65
2021/05/22 01:06:32;;;;;;;0.77;0.40;;;6.40;99.90;;;6.59;100.00;94578.00;2191764;57;26539;-65
2021/05/22 01:09:22;;;;;;;0.50;0.50;;;6.30;99.90;;;6.58;100.00;94584.00;2191287;57;26619;-66
2021/05/22 01:12:11;;;;;;;0.47;0.37;;;6.30;99.90;;;6.57;100.00;94593.00;2191302;57;26679;-65
2021/05/22 01:15:07;;;;;;;0.53;0.40;;;6.20;99.90;;;6.52;100.00;94600.00;2405407;57;26669;-64
2021/05/22 01:17:54;;;;;;;0.40;0.40;;;6.20;99.90;;;6.47;100.00;94602.00;2191208;57;26205;-64
2021/05/22 01:20:45;;;;;;;0.90;0.70;;;6.20;99.90;;;6.49;100.00;94608.00;2405274;57;26204;-65
2021/05/22 01:23:37;;;;;;;0.40;0.30;;;6.30;99.90;;;6.56;100.00;94613.00;2191909;57;26169;-64
2021/05/22 01:26:26;;;;;;;0.60;0.40;;;6.30;99.90;;;6.59;100.00;94615.00;2405041;57;26237;-64
2021/05/22 01:29:13;;;;;;;0.47;0.47;;;6.40;99.90;;;6.61;100.00;94597.00;2191641;57;26483;-64
2021/05/22 01:32:00;;;;;;;0.43;0.43;;;6.30;99.90;;;6.60;100.00;94605.00;2192216;57;26586;-65
2021/05/22 01:34:47;;;;;;;0.40;0.40;;;6.30;99.90;;;6.60;100.00;94590.00;2404645;57;26149;-65
2021/05/22 01:37:33;;;;;;;1.43;0.50;;;6.30;99.90;;;6.55;100.00;94595.00;2191736;57;26255;-64
2021/05/22 01:40:20;;;;;;;0.50;0.40;;;6.30;99.90;;;6.46;100.00;94603.00;2405200;57;26130;-64
2021/05/22 01:43:08;;;;;;;0.63;0.40;;;6.20;99.90;;;6.51;100.00;94604.00;2191503;57;26640;-64
2021/05/22 01:45:56;;;;;;;0.67;0.40;;;6.20;99.90;;;6.38;100.00;94604.00;2405327;57;26186;-64
2021/05/22 01:48:43;;;;;;;0.20;0.20;;;6.20;99.90;;;6.48;100.00;94599.00;2191910;57;26267;-64
2021/05/22 01:51:30;;;;;;;0.27;0.27;;;6.10;99.90;;;6.38;100.00;94596.00;2405686;57;26246;-64
2021/05/22 01:54:18;;;;;;;0.90;0.57;;;6.10;99.90;;;6.42;100.00;94581.00;2191701;57;26130;-64
2021/05/22 01:57:05;;;;;;;0.40;0.20;;;6.20;99.90;;;6.44;100.00;94590.00;2405549;57;26206;-65
2021/05/22 01:59:51;;;;;;;2.17;0.33;;;6.20;99.90;;;6.40;100.00;94578.00;2191752;57;26614;-65
2021/05/22 02:02:41;;;;;;;0.50;0.30;;;6.10;99.90;;;6.32;100.00;94584.00;2405468;57;26649;-64
2021/05/22 02:05:29;;;;;;;0.40;0.30;;;6.10;99.90;;;6.40;100.00;94570.00;2191623;57;26141;-64
2021/05/22 02:08:20;;;;;;;1.70;0.47;;;6.10;99.90;;;6.38;100.00;94570.00;2405519;57;26201;-63
2021/05/22 02:11:08;;;;;;;0.37;0.30;;;6.10;99.90;;;6.43;100.00;94573.00;2191479;57;26153;-65
2021/05/22 02:13:56;;;;;;;0.40;0.40;;;6.20;99.90;;;6.43;100.00;94565.00;2405899;57;26101;-66
2021/05/22 02:16:49;;;;;;;0.40;0.40;;;6.20;99.90;;;6.37;100.00;94566.00;2191816;57;26152;-64
2021/05/22 02:19:38;;;;;;;0.30;0.30;;;6.10;99.90;;;6.36;100.00;94554.00;2191049;57;26138;-65
2021/05/22 02:22:25;;;;;;;0.83;0.53;;;6.20;99.90;;;6.46;100.00;94536.00;2405796;57;26221;-65
2021/05/22 02:25:14;;;;;;;0.60;0.40;;;6.20;99.90;;;6.42;100.00;94537.00;2191861;57;26129;-65
2021/05/22 02:28:06;;;;;;;0.40;0.30;;;6.10;99.90;;;6.38;100.00;94531.00;2405286;57;26237;-65
2021/05/22 02:30:53;;;;;;;0.30;0.30;;;6.20;99.90;;;6.48;100.00;94532.00;2191722;57;26160;-65
2021/05/22 02:33:39;;;;;;;0.60;0.53;;;6.20;99.90;;;6.42;100.00;94516.00;2191904;57;26157;-65
2021/05/22 02:36:26;;;;;;;0.77;0.77;;;6.20;99.90;;;6.44;100.00;94502.00;2405461;57;26166;-65
2021/05/22 02:39:15;;;;;;;0.40;0.40;;;6.20;99.90;;;6.46;100.00;94517.00;2191720;57;26161;-65
2021/05/22 02:42:04;;;;;;;0.43;0.43;;;6.20;99.90;;;6.52;100.00;94522.00;2405194;57;26182;-65
2021/05/22 02:44:52;;;;;;;1.10;0.50;;;6.20;99.90;;;6.37;100.00;94501.00;2189915;57;26242;-66
2021/05/22 02:47:41;;;;;;;0.90;0.57;;;6.30;99.90;;;6.59;100.00;94500.00;2190254;57;26606;-65
2021/05/22 02:50:30;;;;;;;0.57;0.43;;;6.40;99.90;;;6.62;100.00;94502.00;2190695;57;26226;-65
2021/05/22 02:53:21;;;;;;;1.13;0.57;;;6.30;99.90;;;6.48;100.00;94521.00;2190511;57;26238;-65
2021/05/22 02:56:10;;;;;;;1.93;0.40;;;6.30;99.90;;;6.58;100.00;94526.00;2404841;57;26262;-66
2021/05/22 02:58:57;;;;;;;1.23;0.57;;;6.30;99.90;;;6.62;100.00;94529.00;2190653;57;26196;-64
2021/05/22 03:01:43;;;;;;;3.80;0.47;;;6.40;99.90;;;6.67;100.00;94518.00;2405328;57;26138;-64
2021/05/22 03:04:33;;;;;;;2.20;0.60;;;6.40;99.90;;;6.65;100.00;94522.00;2405464;57;26210;-63
2021/05/22 03:07:19;;;;;;;0.70;0.67;;;6.40;99.90;;;6.65;100.00;94541.00;2191974;57;26205;-63
2021/05/22 03:10:08;;;;;;;0.50;0.50;;;6.40;99.90;;;6.61;100.00;94539.00;2405287;57;26197;-63
2021/05/22 03:12:55;;;;;;;0.40;0.37;;;6.40;99.90;;;6.63;100.00;94550.00;2191713;57;26153;-63
2021/05/22 03:15:41;;;;;;;0.93;0.40;;;6.50;99.90;;;6.72;100.00;94547.00;2405748;57;26094;-63
2021/05/22 03:18:27;;;;;;;0.40;0.40;;;6.40;99.90;;;6.55;100.00;94535.00;2191567;57;26212;-63
2021/05/22 03:21:13;;;;;;;0.57;0.57;;;6.40;99.90;;;6.49;100.00;94512.00;2405305;57;26689;-63
2021/05/22 03:24:00;;;;;;;0.57;0.50;;;6.50;99.90;;;6.67;100.00;94515.00;2191501;57;26758;-63
2021/05/22 03:26:47;;;;;;;0.60;0.40;;;6.30;99.90;;;6.50;100.00;94529.00;2404912;57;26218;-64
2021/05/22 03:29:33;;;;;;;0.93;0.60;;;6.40;99.90;;;6.63;100.00;94542.00;2191419;57;26098;-63
2021/05/22 03:32:19;;;;;;;1.00;0.57;;;6.20;99.90;;;6.42;100.00;94539.00;2192001;57;26185;-63
2021/05/22 03:35:08;;;;;;;0.60;0.60;;;6.30;99.90;;;6.52;100.00;94543.00;2404998;57;26579;-63
2021/05/22 03:37:54;;;;;;;0.60;0.60;;;6.30;99.90;;;6.45;100.00;94539.00;2191778;57;26197;-64
2021/05/22 03:40:40;;;;;;;0.70;0.63;;;6.30;99.90;;;6.44;100.00;94549.00;2405462;57;26109;-64
2021/05/22 03:43:27;;;;;;;0.70;0.70;;;6.30;99.90;;;6.46;100.00;94555.00;2191530;57;26126;-63
2021/05/22 03:46:13;;;;;;;0.73;0.70;;;6.20;99.90;;;6.41;100.00;94538.00;2000934;57;19342193;-63
2021/05/22 03:48:59;;;;;;;1.47;0.70;;;6.20;99.90;;;6.32;100.00;94539.00;2191550;57;26571;-63
2021/05/22 03:51:46;;;;;;;0.50;0.50;;;6.20;99.90;;;6.57;100.00;94543.00;2405514;57;26161;-63
2021/05/22 03:54:32;;;;;;;0.50;0.50;;;6.20;99.90;;;6.43;100.00;94544.00;2191463;57;26559;-63
2021/05/22 03:57:19;;;;;;;2.10;0.60;;;6.40;99.90;;;6.74;100.00;94543.00;2191964;57;26178;-63
2021/05/22 04:00:09;;;;;;;0.40;0.40;;;6.40;99.90;;;6.67;100.00;94537.00;2405248;57;26150;-64
2021/05/22 04:02:56;;;;;;;0.97;0.50;;;6.40;99.90;;;6.68;100.00;94551.00;2191240;57;26161;-65
2021/05/22 04:05:42;;;;;;;0.87;0.60;;;6.40;99.90;;;6.58;100.00;94550.00;2405707;57;26134;-64
2021/05/22 04:08:29;;;;;;;0.80;0.67;;;6.40;99.90;;;6.63;100.00;94554.00;2191737;57;26599;-65
2021/05/22 04:11:15;;;;;;;0.93;0.70;;;6.50;99.90;;;6.80;100.00;94547.00;2405488;57;26288;-64
2021/05/22 04:14:02;;;;;;;0.70;0.60;;;6.70;99.90;;;6.94;100.00;94550.00;2191863;57;26629;-63
2021/05/22 04:16:48;;;;;;;1.03;0.70;;;6.70;99.90;;;6.90;100.00;94541.00;2405487;57;26158;-63
2021/05/22 04:19:34;;;;;;;0.37;0.37;;;6.60;99.90;;;6.91;100.00;94535.00;2191361;57;26173;-63
2021/05/22 04:22:20;;;;;;;0.50;0.30;;;6.70;99.90;;;7.03;100.00;94539.00;2405556;57;26122;-63
2021/05/22 04:25:09;;;;;;;0.40;0.40;;;6.80;99.90;;;7.06;100.00;94526.00;2405489;57;26190;-63
2021/05/22 04:27:56;;;;;;;1.83;0.60;;;6.70;99.90;;;6.94;100.00;94535.00;2405261;57;26166;-64
2021/05/22 04:30:42;;;;;;;0.70;0.50;;;6.60;99.90;;;6.74;100.00;94551.00;2405416;57;26567;-64
2021/05/22 04:33:29;;;;;;;0.80;0.60;;;6.60;99.90;;;6.80;100.00;94557.00;2191831;57;26662;-63
2021/05/22 04:36:15;;;;;;;0.70;0.50;;;6.80;99.90;;;7.17;100.00;94557.00;2405452;57;26113;-65
2021/05/22 04:39:02;;;;;;;0.50;0.50;;;6.90;99.90;;;7.27;100.00;94539.00;2191353;57;26165;-64
2021/05/22 04:41:48;;;;;;;0.50;0.40;;;6.80;99.90;;;7.08;100.00;94548.00;2404585;57;26246;-64
2021/05/22 04:44:34;;;;;;;0.80;0.47;;;6.90;99.90;;;7.17;100.00;94538.00;2191632;57;26682;-63
2021/05/22 04:47:20;;;;;;;0.40;0.40;;;6.80;99.90;;;6.89;100.00;94551.00;2405723;57;26145;-63
2021/05/22 04:50:09;;;;;;;0.43;0.30;;;6.70;99.90;;;6.84;100.00;94577.00;2191193;57;26197;-63
2021/05/22 04:52:55;;;;;;;0.50;0.50;;;6.70;99.90;;;6.87;100.00;94589.00;2405331;57;26165;-63
2021/05/22 04:55:42;;;;;;;0.60;0.40;;;6.70;99.90;;;7.15;100.00;94586.00;2405562;57;26255;-64
2021/05/22 04:58:28;;;;;;;2.03;0.70;;;6.90;99.90;;;7.14;100.00;94563.00;2191546;57;27285;-63
2021/05/22 05:01:14;;;;;;;0.70;0.53;;;6.60;99.90;;;6.83;100.00;94578.00;2405358;57;26157;-64
2021/05/22 05:04:01;;;;;;;0.60;0.60;;;6.80;99.90;;;7.18;100.00;94580.00;2191361;57;26158;-64
2021/05/22 05:06:47;;;;;;;1.13;0.50;;;6.80;99.90;;;7.16;100.00;94584.00;2405033;57;26136;-64
2021/05/22 05:09:35;;;;;;;1.13;0.80;;;7.00;99.90;;;7.35;100.00;94560.00;2191678;57;26109;-63
2021/05/22 05:12:22;;;;;;;1.00;0.70;;;7.00;99.90;;;7.32;100.00;94550.00;2405736;57;26125;-64
2021/05/22 05:15:10;;;;;;;2.73;0.70;;;6.90;99.90;;;7.12;100.00;94551.00;2191615;57;26644;-63
2021/05/22 05:17:57;;;;;;;0.93;0.87;;;6.90;99.90;;;7.25;100.00;94576.00;2190946;57;26244;-63
2021/05/22 05:20:43;;;;;;;0.47;0.47;;;7.00;99.90;;;7.46;100.00;94572.00;2190411;57;26566;-64
2021/05/22 05:23:30;;;;;;;0.80;0.80;;;7.20;99.90;;;7.61;100.00;94563.00;2190218;57;26229;-64
2021/05/22 05:26:17;;;;;;;1.20;0.67;;;7.10;99.90;;;7.52;100.00;94567.00;2190386;57;26201;-63
2021/05/22 05:29:03;;;;;;;0.60;0.47;;;7.10;99.90;;;7.59;100.00;94576.00;2405807;57;26526;-64
2021/05/22 05:31:50;;;;;;;2.30;0.70;;;7.20;99.90;;;7.62;100.00;94569.00;2405331;57;26218;-63
2021/05/22 05:34:38;;;;;;;1.10;0.80;;;7.40;99.90;;;7.88;100.00;94554.00;2191726;57;26154;-64
2021/05/22 05:37:24;;;;;;;3.83;0.70;;;7.50;99.90;;;7.97;100.00;94560.00;2405887;57;26098;-64
2021/05/22 05:40:12;;;;;;;0.80;0.60;;;7.60;99.90;;;7.94;100.00;94532.00;2191660;57;26230;-63
2021/05/22 05:42:58;;;;;;;0.87;0.80;;;7.60;99.90;;;7.94;100.00;94556.00;2191534;57;26252;-64
2021/05/22 05:45:45;;;;;;;2.27;1.00;;;7.50;99.90;;;7.85;100.00;94547.00;2406328;57;26105;-64
2021/05/22 05:48:31;;;;;;;2.27;1.10;;;7.60;99.90;;;8.00;100.00;94549.00;2191521;57;26181;-64
2021/05/22 05:51:18;;;;;;;1.43;1.03;;;7.50;99.90;;;7.97;100.00;94547.00;2405319;57;26659;-64
2021/05/22 05:54:05;;;;;;;1.00;0.90;;;7.60;99.90;;;7.95;100.00;94542.00;2191479;57;26690;-60
2021/05/22 05:56:51;;;;;;;3.20;1.00;;;7.60;99.90;;;8.00;100.00;94539.00;2405064;57;26587;-63
2021/05/22 05:59:38;;;;;;;0.80;0.80;;;7.50;99.90;;;7.93;100.00;94541.00;2192128;57;26200;-63
2021/05/22 06:02:24;;;;;;;1.00;0.90;;;7.40;99.90;;;7.85;100.00;94547.00;2405386;57;26218;-62
2021/05/22 06:05:12;;;;;;;1.10;0.90;;;7.60;99.90;;;8.19;100.00;94550.00;2191302;57;26691;-63
2021/05/22 06:07:58;;;;;;;1.77;0.77;;;7.60;99.90;;;8.06;100.00;94536.00;2191879;57;26177;-62
2021/05/22 06:10:46;;;;;;;0.93;0.80;;;7.50;99.90;;;8.02;100.00;94550.00;2405597;57;26803;-62
2021/05/22 06:13:35;;;;;;;0.70;0.60;;;7.90;99.90;;;8.52;100.00;94539.00;2192042;57;26201;-62
2021/05/22 06:16:25;;;;;;;0.73;0.73;;;8.20;99.90;;;8.78;100.00;94524.00;2405607;57;26157;-62
2021/05/22 06:19:12;;;;;;;1.33;0.90;;;8.40;99.90;;;8.84;100.00;94521.00;2405483;57;26651;-62
2021/05/22 06:21:58;;;;;;;0.93;0.60;;;8.40;99.90;;;9.00;100.00;94526.00;2191389;57;26215;-62
2021/05/22 06:24:46;;;;;;;2.03;1.10;;;8.30;99.90;;;8.83;100.00;94533.00;2191587;57;26146;-63
2021/05/22 06:27:32;;;;;;;1.60;1.20;;;8.10;99.90;;;8.74;100.00;94551.00;2405696;57;26150;-63
2021/05/22 06:30:21;;;;;;;2.97;2.57;;;8.10;99.90;;;8.85;100.00;94548.00;2191537;57;26560;-63
2021/05/22 06:33:07;;;;;;;3.00;2.33;;;8.30;99.90;;;9.17;100.00;94556.00;2405528;57;26551;-62
2021/05/22 06:35:54;;;;;;;1.43;1.13;;;8.90;99.90;;;9.90;100.00;94547.00;2191649;57;26559;-63
2021/05/22 06:38:40;;;;;;;1.10;1.00;;;8.90;99.90;;;9.73;100.00;94543.00;2405562;57;26131;-63
2021/05/22 06:41:26;;;;;;;2.07;0.87;;;9.40;99.90;;;10.92;100.00;94525.00;2191744;57;26182;-63
2021/05/22 06:44:19;;;;;;;1.60;0.63;;;10.70;99.90;;;14.01;100.00;94513.00;2405797;57;26121;-62
2021/05/22 06:47:06;;;;;;;2.43;0.67;;;12.10;99.90;;;16.86;100.00;94501.00;2191540;57;26212;-62
2021/05/22 06:49:52;;;;;;;0.80;0.60;;;12.50;99.90;;;17.25;100.00;94512.00;2405388;57;26768;-63
2021/05/22 06:52:39;;;;;;;1.30;0.70;;;12.80;99.90;;;16.28;100.00;94510.00;2192369;57;26163;-62
2021/05/22 06:55:25;;;;;;;1.27;1.17;;;12.90;99.90;;;16.49;100.00;94514.00;2405345;57;26177;-62
2021/05/22 06:58:11;;;;;;;1.40;1.30;;;13.50;99.90;;;17.27;100.00;94513.00;2191993;57;26193;-62
2021/05/22 07:00:58;;;;;;;1.50;0.90;;;12.90;99.90;;;15.27;100.00;94503.00;2405508;57;26139;-62
2021/05/22 07:03:44;;;;;;;0.70;0.70;;;12.10;99.90;;;13.97;100.00;94509.00;2191361;57;26591;-63
2021/05/22 07:06:30;;;;;;;1.33;0.70;;;12.20;99.90;;;14.58;100.00;94518.00;2191586;57;26694;-62
2021/05/22 07:09:17;;;;;;;4.50;1.70;;;12.10;99.90;;;14.36;100.00;94521.00;2405623;57;26251;-63
2021/05/22 07:12:04;;;;;;;1.93;0.70;;;12.40;99.90;;;15.05;100.00;94519.00;2191413;57;26216;-62
2021/05/22 07:14:50;;;;;;;2.40;0.70;;;13.60;99.90;;;17.07;100.00;94512.00;2405733;57;26248;-62
2021/05/22 07:17:37;;;;;;;1.70;0.50;;;14.00;99.90;;;18.53;100.00;94526.00;2191715;57;26254;-62
2021/05/22 07:20:23;;;;;;;1.83;0.68;;;14.50;99.90;;;16.94;100.00;94520.00;2190127;57;26176;-62
2021/05/22 07:23:10;;;;;;;2.27;0.60;;;14.70;99.90;;;18.21;100.00;94511.00;2190945;57;26237;-62
2021/05/22 07:25:56;;;;;;;1.85;0.70;;;14.70;99.90;;;19.39;100.00;94504.00;2191445;57;26206;-62
2021/05/22 07:28:42;;;;;;;0.88;0.70;;;15.00;99.90;;;19.15;96.90;94516.00;2405679;57;26640;-62
2021/05/22 07:31:28;;;;;;;1.02;0.47;;;16.40;99.90;;;20.56;89.31;94507.00;2191986;57;26646;-68
2021/05/22 07:34:15;;;;;;;1.42;0.90;;;15.10;99.90;;;17.50;95.80;94503.00;2405422;57;26662;-62
2021/05/22 07:37:01;;;;;;;2.25;0.85;;;15.60;99.90;;;19.48;94.63;94507.00;2191354;57;26274;-63
2021/05/22 07:39:48;;;;;;;2.62;0.70;;;16.80;99.90;;;21.61;77.13;94493.00;2405598;57;26177;-63
2021/05/22 07:42:34;;;;;;;0.62;0.40;;;15.90;99.90;;;20.21;87.50;94499.00;2191455;57;26241;-64
2021/05/22 07:45:21;;;;;;;1.42;0.70;;;17.20;99.90;;;21.42;87.47;94498.00;2405669;57;26682;-63
2021/05/22 07:48:07;;;;;;;2.65;0.93;;;17.00;99.90;;;21.75;73.69;94503.00;2191604;57;26118;-63
2021/05/22 07:50:54;;;;;;;3.00;0.90;;;16.70;99.90;;;20.98;78.93;94504.00;2191610;57;26267;-63
2021/05/22 07:53:40;;;;;;;1.65;0.70;;;16.30;99.90;;;19.84;75.97;94501.00;2405281;57;27067;-61
2021/05/22 07:56:27;;;;;;;1.77;0.80;;;15.60;99.90;;;19.06;85.82;94503.00;2191239;57;26103;-62
2021/05/22 07:59:13;;;;;;;2.28;0.90;;;15.90;99.90;;;19.41;84.77;94499.00;2405958;57;26246;-61
2021/05/22 08:02:00;;;;;;;3.08;0.80;;;16.50;99.90;;;20.16;78.36;94498.00;2191546;57;26200;-61
2021/05/22 08:04:46;;;;;;;2.95;0.95;;;17.00;99.90;;;20.80;73.05;94499.00;2404774;57;26575;-61
2021/05/22 08:07:34;;;;;;;3.45;0.90;;;16.20;99.90;;;19.13;78.44;94505.00;2192017;57;26600;-61
2021/05/22 08:10:20;;;;;;;1.92;0.98;;;16.50;99.90;;;20.05;80.93;94485.00;2405302;57;26612;-61
2021/05/22 08:13:09;;;;;;;4.28;1.20;;;15.70;99.90;;;18.59;88.40;94505.00;2191768;57;26231;-62
2021/05/22 08:15:55;;;;;;;3.40;1.00;;;16.10;99.90;;;18.97;77.53;94488.00;2191338;57;26241;-61
2021/05/22 08:18:42;;;;;;;2.33;1.00;;;16.20;99.90;;;19.43;84.86;94497.00;2404716;57;26705;-61
2021/05/22 08:21:29;;;;;;;2.60;1.20;;;16.90;99.90;;;20.34;65.88;94496.00;2191342;57;26225;-60
2021/05/22 08:24:15;;;;;;;3.20;1.20;;;15.50;99.90;;;18.51;76.85;94488.00;2405319;57;26596;-60
2021/05/22 08:27:03;;;;;;;2.97;0.93;;;16.10;99.90;;;18.98;71.01;94496.00;2191242;57;26161;-60
2021/05/22 08:29:49;;;;;;;3.70;1.40;;;16.60;99.90;;;20.14;70.19;94491.00;2404808;57;26262;-63
2021/05/22 08:32:36;;;;;;;1.62;0.85;;;17.90;99.90;;;21.59;58.42;94491.00;2191174;57;26117;-60
2021/05/22 08:35:23;;;;;;;2.60;1.10;;;17.50;99.90;;;20.47;54.80;94490.00;2404842;57;26646;-61
2021/05/22 08:38:09;;;;;;;3.05;1.52;;;17.90;99.90;;;21.39;60.28;94487.00;2191676;57;26626;-60
2021/05/22 08:40:56;;;;;;;3.30;1.23;;;17.10;99.90;;;20.38;58.34;94486.00;2404014;57;26137;-60
2021/05/22 08:43:43;;;;;;;3.35;1.20;;;17.10;99.90;;;20.06;60.84;94484.00;2191572;57;26213;-60
2021/05/22 08:46:31;;;;;;;5.00;1.40;;;18.10;99.90;;;22.05;55.53;94480.00;2190427;57;26110;-61
2021/05/22 08:49:18;;;;;;;2.00;1.20;;;17.60;99.90;;;20.96;57.80;94485.00;2404869;57;26166;-61
2021/05/22 08:52:06;;;;;;;3.80;1.20;;;18.50;99.90;;;21.80;54.68;94478.00;2191381;57;26601;-61
2021/05/22 08:54:52;;;;;;;5.12;1.20;;;19.80;99.90;;;23.60;47.67;94479.00;2404023;57;26852;-61
2021/05/22 08:57:39;;;;;;;5.22;1.05;;;19.10;99.90;;;23.06;51.58;94478.00;2191606;57;26213;-60
2021/05/22 09:00:27;;;;;;;4.20;2.58;;;20.00;99.90;;;23.86;45.07;94483.00;2405022;57;26134;-61
2021/05/22 09:03:14;;;;;;;10.60;6.80;;;18.70;99.90;;;20.72;48.61;94473.00;2191549;57;26314;-61
2021/05/22 09:06:01;;;;;;;2.50;1.20;;;19.30;99.90;;;22.65;54.11;94486.00;2405496;57;26130;-61
2021/05/22 09:09:05;;;;;;;6.40;1.90;;;19.10;99.90;;;22.65;46.24;94477.00;2191798;57;26617;-61
2021/05/22 09:11:52;;;;;;;3.70;2.72;;;18.40;99.90;;;21.16;54.29;94477.00;2192135;57;26138;-61
2021/05/22 09:14:44;;;;;;;4.15;1.90;;;18.60;99.90;;;21.69;51.81;94485.00;2405767;57;26602;-61
2021/05/22 09:17:31;;;;;;;1.67;1.10;;;19.10;99.90;;;22.16;50.67;94477.00;2191882;57;26615;-61
2021/05/22 09:20:22;;;;;;;2.90;1.40;;;19.00;99.90;;;22.61;50.62;94489.00;2405275;57;26563;-61
2021/05/22 09:23:13;;;;;;;4.57;1.70;;;18.30;99.90;;;20.47;52.94;94488.00;2192097;57;26149;-60
2021/05/22 09:26:02;;;;;;;3.00;1.00;;;18.10;99.90;;;19.96;54.36;94497.00;2404188;57;26145;-60
2021/05/22 09:28:51;;;;;;;2.35;1.23;;;17.90;99.90;;;20.53;56.57;94492.00;2191447;57;26730;-61
2021/05/22 09:31:37;;;;;;;1.92;1.17;;;18.20;99.90;;;20.45;54.79;94489.00;2191516;57;26566;-60
2021/05/22 09:34:30;;;;;;;1.90;0.98;;;18.60;99.90;;;20.72;47.21;94492.00;2405300;57;26575;-60
2021/05/22 09:37:17;;;;;;;2.53;0.90;;;17.20;99.90;;;18.49;57.02;94489.00;2404768;57;26278;-60
2021/05/22 09:40:05;;;;;;;1.65;0.80;;;16.50;99.90;;;17.66;68.31;94497.00;2191316;57;26145;-61
2021/05/22 09:42:52;;;;;;;1.58;0.75;;;16.60;99.90;;;18.32;69.44;94486.00;2192270;57;26122;-61
2021/05/22 09:45:40;;;;;;;1.35;0.90;;;18.20;99.90;;;20.68;58.34;94479.00;2406159;57;26105;-61
2021/05/22 09:48:27;;;;;;;3.33;0.93;;;18.90;99.90;;;21.41;54.05;94479.00;2192251;57;26245;-60
2021/05/22 09:51:13;;;;;;;1.67;1.00;;;18.80;99.90;;;21.21;48.12;94483.00;2406369;57;26106;-60
2021/05/22 09:53:59;;;;;;;0.77;0.50;;;19.60;99.90;;;21.96;44.76;94479.00;2192029;57;26105;-61
2021/05/22 09:56:50;;;;;;;1.42;0.80;;;19.60;99.90;;;22.50;46.89;94472.00;2405650;57;26169;-61
2021/05/22 09:59:37;;;;;;;4.53;1.30;;;21.00;99.90;;;23.87;41.49;94484.00;2192280;57;26346;-61
2021/05/22 10:02:39;;;;;;;3.12;1.27;;;19.00;99.90;;;20.97;51.13;94479.00;2406342;57;26182;-61
2021/05/22 10:05:29;;;;;;;4.45;1.20;;;18.30;99.90;;;20.66;57.97;94486.00;2406569;57;26138;-60
2021/05/22 10:08:20;;;;;;;1.80;1.05;;;18.10;99.90;;;20.10;66.23;94479.00;2192447;57;26647;-61
2021/05/22 10:11:07;;;;;;;4.18;1.00;;;17.90;99.90;;;19.97;60.01;94482.00;2406349;57;26150;-61
2021/05/22 10:13:53;;;;;;;6.55;1.42;;;17.90;99.90;;;19.79;59.83;94475.00;2192236;57;26551;-61
2021/05/22 10:16:39;;;;;;;2.67;1.10;;;17.90;99.90;;;20.27;63.83;94482.00;2406944;57;26177;-61
2021/05/22 10:19:27;;;;;;;0.90;0.75;;;19.30;99.90;;;22.46;49.83;94489.00;2192028;57;26185;-60
2021/05/22 10:22:13;;;;;;;2.00;1.05;;;20.30;99.90;;;22.73;42.82;94485.00;2406473;57;26157;-60
2021/05/22 10:25:01;;;;;;;2.45;1.02;;;21.60;99.90;;;23.97;39.30;94483.00;2192428;57;26177;-61
2021/05/22 10:27:48;;;;;;;3.08;1.00;;;19.80;99.90;;;21.20;55.33;94473.00;2406125;57;26634;-61
2021/05/22 10:30:35;;;;;;;2.83;1.10;;;20.00;99.90;;;22.68;52.13;94475.00;2192521;57;26166;-61
2021/05/22 10:33:23;;;;;;;2.37;0.90;;;20.80;99.90;;;23.76;44.31;94470.00;2406208;57;26121;-61
2021/05/22 10:36:09;;;;;;;4.57;1.00;;;19.90;99.90;;;21.43;47.69;94469.00;2192372;57;26130;-60
2021/05/22 10:38:56;;;;;;;2.30;1.02;;;19.30;99.90;;;21.20;47.41;94460.00;2192186;57;26165;-60
2021/05/22 10:41:42;;;;;;;3.42;1.30;;;19.20;99.90;;;21.43;47.35;94470.00;2406659;57;26165;-61
2021/05/22 10:44:32;;;;;;;2.85;0.90;;;19.80;99.90;;;22.21;48.22;94474.00;2192299;57;26639;-61
2021/05/22 10:47:21;;;;;;;3.37;1.02;;;20.40;99.90;;;22.33;49.76;94469.00;2406550;57;26504;-61
2021/05/22 10:50:09;;;;;;;2.47;1.23;;;19.40;99.90;;;21.05;50.53;94462.00;2192142;57;26616;-61
2021/05/22 10:53:24;;;;;;;2.17;0.80;;;20.90;99.90;;;23.78;41.41;94457.00;2406024;57;26114;-61
2021/05/22 10:56:14;;;;;;;2.35;1.10;;;20.10;99.90;;;22.87;42.77;94459.00;2192558;57;26133;-61
2021/05/22 10:59:15;;;;;;;1.27;0.90;;;21.30;99.90;;;23.63;40.20;94459.00;2406329;57;26113;-61
2021/05/22 11:02:02;;;;;;;1.98;0.73;;;22.10;98.90;;;24.02;36.68;94449.00;2406590;57;26202;-61
2021/05/22 11:04:48;;;;;;;1.30;0.82;;;21.40;99.90;;;23.15;40.82;94458.00;2405611;57;26213;-61
2021/05/22 11:07:34;;;;;;;2.47;1.00;;;19.80;99.90;;;21.10;49.84;94446.00;2192551;57;26617;-61
2021/05/22 11:10:37;;;;;;;1.23;0.80;;;19.80;99.90;;;21.79;50.10;94467.00;2406696;57;26209;-61
2021/05/22 11:13:40;;;;;;;1.83;0.90;;;20.00;99.90;;;21.67;52.13;94461.00;2406361;57;26134;-61
2021/05/22 11:16:35;;;;;;;1.95;0.90;;;20.20;99.90;;;21.78;56.99;94462.00;2406401;57;26270;-61
2021/05/22 11:19:21;;;;;;;1.67;1.05;;;20.90;99.90;;;23.14;45.48;94465.00;2192037;57;26143;-61
2021/05/22 11:22:15;;;;;;;1.70;1.00;;;20.10;99.90;;;21.82;48.95;94462.00;2406258;57;26215;-62
2021/05/22 11:25:02;;;;;;;0.90;0.80;;;20.00;99.90;;;21.82;50.77;94459.00;2406306;57;26192;-61
2021/05/22 11:28:00;;;;;;;1.12;0.80;;;20.90;99.90;;;23.13;41.29;94468.00;2192335;57;26102;-61
2021/05/22 11:30:52;;;;;;;1.25;0.80;;;20.20;99.90;;;21.14;43.80;94456.00;2406061;57;26094;-61
2021/05/22 11:33:38;;;;;;;1.83;0.90;;;21.90;99.30;;;24.35;37.99;94467.00;2192294;57;26147;-61
2021/05/22 11:36:25;;;;;;;1.08;0.80;;;22.70;96.80;;;24.64;35.75;94464.00;2406368;57;26121;-61
2021/05/22 11:39:38;;;;;;;0.75;0.65;;;21.30;97.60;;;22.29;39.45;94481.00;2192188;57;26198;-62
2021/05/22 11:42:33;;;;;;;1.65;0.77;;;22.90;96.60;;;24.17;36.87;94467.00;2406606;57;26169;-62
2021/05/22 11:45:19;;;;;;;2.05;0.90;;;20.90;96.80;;;21.57;39.25;94466.00;2192641;57;26141;-62
2021/05/22 11:48:23;;;;;;;1.83;0.90;;;22.20;98.50;;;23.92;39.50;94445.00;2405483;57;26129;-62
2021/05/22 11:51:17;;;;;;;3.42;1.10;;;20.60;98.80;;;22.63;41.39;94448.00;2192156;57;26213;-61